sensor_id;sensor_type;location;lat;lon;timestamp;temperature;humidity
56861;DHT22;42744;51.094;3.490;2023-04-25T00:01:40;7.70;99.90
56861;DHT22;42744;51.094;3.490;2023-04-25T00:04:07;7.70;99.90
56861;DHT22;42744;51.094;3.490;2023-04-25T00:06:34;7.70;99.90
56861;DHT22;42744;51.094;3.490;2023-04-25T00:09:05;7.70;99.90
56861;DHT22;42744;51.094;3.490;2023-04-25T00:11:36;7.70;99.90
56861;DHT22;42744;51.094;3.490;2023-04-25T00:14:03;7.70;99.90
56861;DHT22;42744;51.094;3.490;2023-04-25T00:16:30;7.80;99.90
56861;DHT22;42744;51.094;3.490;2023-04-25T00:19:00;7.80;99.90
56861;DHT22;42744;51.094;3.490;2023-04-25T00:21:27;7.80;99.90
56861;DHT22;42744;51.094;3.490;2023-04-25T00:23:54;7.70;99.90
56861;DHT22;42744;51.094;3.490;2023-04-25T00:26:20;7.70;99.90
56861;DHT22;42744;51.094;3.490;2023-04-25T00:28:47;7.70;99.90
56861;DHT22;42744;51.094;3.490;2023-04-25T00:31:13;7.70;99.90
56861;DHT22;42744;51.094;3.490;2023-04-25T00:33:40;7.70;99.90
56861;DHT22;42744;51.094;3.490;2023-04-25T00:36:06;7.70;99.90
56861;DHT22;42744;51.094;3.490;2023-04-25T00:38:32;7.60;99.90
56861;DHT22;42744;51.094;3.490;2023-04-25T00:40:59;7.60;99.90
56861;DHT22;42744;51.094;3.490;2023-04-25T00:43:28;7.60;99.90
56861;DHT22;42744;51.094;3.490;2023-04-25T00:45:56;7.60;99.90
56861;DHT22;42744;51.094;3.490;2023-04-25T00:48:23;7.70;99.90
56861;DHT22;42744;51.094;3.490;2023-04-25T00:50:54;7.60;99.90
56861;DHT22;42744;51.094;3.490;2023-04-25T00:53:21;7.60;99.90
56861;DHT22;42744;51.094;3.490;2023-04-25T00:55:48;7.60;99.90
56861;DHT22;42744;51.094;3.490;2023-04-25T00:58:20;7.60;99.90
56861;DHT22;42744;51.094;3.490;2023-04-25T01:00:48;7.60;99.90
56861;DHT22;42744;51.094;3.490;2023-04-25T01:03:15;7.60;99.90
56861;DHT22;42744;51.094;3.490;2023-04-25T01:05:48;7.60;99.90
56861;DHT22;42744;51.094;3.490;2023-04-25T01:08:14;7.70;99.90
56861;DHT22;42744;51.094;3.490;2023-04-25T01:10:41;7.60;99.90
56861;DHT22;42744;51.094;3.490;2023-04-25T01:13:07;7.60;99.90
56861;DHT22;42744;51.094;3.490;2023-04-25T01:15:33;7.50;99.90
56861;DHT22;42744;51.094;3.490;2023-04-25T01:18:01;7.50;99.90
56861;DHT22;42744;51.094;3.490;2023-04-25T01:20:28;7.50;99.90
56861;DHT22;42744;51.094;3.490;2023-04-25T01:22:55;7.50;99.90
56861;DHT22;42744;51.094;3.490;2023-04-25T01:25:22;7.50;99.90
56861;DHT22;42744;51.094;3.490;2023-04-25T01:27:49;7.50;99.90
56861;DHT22;42744;51.094;3.490;2023-04-25T01:30:15;7.40;99.90
56861;DHT22;42744;51.094;3.490;2023-04-25T01:32:42;7.40;99.90
56861;DHT22;42744;51.094;3.490;2023-04-25T01:35:10;7.30;99.90
56861;DHT22;42744;51.094;3.490;2023-04-25T01:37:41;7.30;99.90
56861;DHT22;42744;51.094;3.490;2023-04-25T01:40:10;7.30;99.90
56861;DHT22;42744;51.094;3.490;2023-04-25T01:42:38;7.30;99.90
56861;DHT22;42744;51.094;3.490;2023-04-25T01:45:06;7.40;99.90
56861;DHT22;42744;51.094;3.490;2023-04-25T01:47:33;7.40;99.90
56861;DHT22;42744;51.094;3.490;2023-04-25T01:50:05;7.40;99.90
56861;DHT22;42744;51.094;3.490;2023-04-25T01:52:32;7.40;99.90
56861;DHT22;42744;51.094;3.490;2023-04-25T01:55:05;7.30;99.90
56861;DHT22;42744;51.094;3.490;2023-04-25T01:57:32;7.30;99.90
56861;DHT22;42744;51.094;3.490;2023-04-25T02:00:01;7.20;99.90
56861;DHT22;42744;51.094;3.490;2023-04-25T02:02:37;7.10;99.90
56861;DHT22;42744;51.094;3.490;2023-04-25T02:05:05;7.10;99.90
56861;DHT22;42744;51.094;3.490;2023-04-25T02:07:32;7.00;99.90
56861;DHT22;42744;51.094;3.490;2023-04-25T02:10:01;6.90;99.90
56861;DHT22;42744;51.094;3.490;2023-04-25T02:12:30;6.90;99.90
56861;DHT22;42744;51.094;3.490;2023-04-25T02:14:57;6.90;99.90
56861;DHT22;42744;51.094;3.490;2023-04-25T02:17:23;7.00;99.90
56861;DHT22;42744;51.094;3.490;2023-04-25T02:19:50;7.00;99.90
56861;DHT22;42744;51.094;3.490;2023-04-25T02:22:16;7.00;99.90
56861;DHT22;42744;51.094;3.490;2023-04-25T02:24:42;7.00;99.90
56861;DHT22;42744;51.094;3.490;2023-04-25T02:27:08;7.00;99.90
56861;DHT22;42744;51.094;3.490;2023-04-25T02:29:34;7.00;99.90
56861;DHT22;42744;51.094;3.490;2023-04-25T02:32:00;7.00;99.90
56861;DHT22;42744;51.094;3.490;2023-04-25T02:34:26;6.90;99.90
56861;DHT22;42744;51.094;3.490;2023-04-25T02:36:52;7.00;99.90
56861;DHT22;42744;51.094;3.490;2023-04-25T02:39:18;6.90;99.90
56861;DHT22;42744;51.094;3.490;2023-04-25T02:41:44;6.90;99.90
56861;DHT22;42744;51.094;3.490;2023-04-25T02:44:10;6.90;99.90
56861;DHT22;42744;51.094;3.490;2023-04-25T02:46:37;6.90;99.90
56861;DHT22;42744;51.094;3.490;2023-04-25T02:49:02;6.90;99.90
56861;DHT22;42744;51.094;3.490;2023-04-25T02:51:29;6.80;99.90
56861;DHT22;42744;51.094;3.490;2023-04-25T02:53:56;6.80;99.90
56861;DHT22;42744;51.094;3.490;2023-04-25T02:56:22;6.80;99.90
56861;DHT22;42744;51.094;3.490;2023-04-25T02:58:48;6.80;99.90
56861;DHT22;42744;51.094;3.490;2023-04-25T03:01:14;6.80;99.90
56861;DHT22;42744;51.094;3.490;2023-04-25T03:03:40;6.80;99.90
56861;DHT22;42744;51.094;3.490;2023-04-25T03:06:06;6.70;99.90
56861;DHT22;42744;51.094;3.490;2023-04-25T03:08:32;6.60;99.90
56861;DHT22;42744;51.094;3.490;2023-04-25T03:11:00;6.50;99.90
56861;DHT22;42744;51.094;3.490;2023-04-25T03:13:26;6.50;99.90
56861;DHT22;42744;51.094;3.490;2023-04-25T03:15:53;6.40;99.90
56861;DHT22;42744;51.094;3.490;2023-04-25T03:18:19;6.50;99.90
56861;DHT22;42744;51.094;3.490;2023-04-25T03:20:45;6.50;99.90
56861;DHT22;42744;51.094;3.490;2023-04-25T03:23:12;6.50;99.90
56861;DHT22;42744;51.094;3.490;2023-04-25T03:25:40;6.50;99.90
56861;DHT22;42744;51.094;3.490;2023-04-25T03:28:06;6.50;99.90
56861;DHT22;42744;51.094;3.490;2023-04-25T03:30:33;6.50;99.90
56861;DHT22;42744;51.094;3.490;2023-04-25T03:32:59;6.40;99.90
56861;DHT22;42744;51.094;3.490;2023-04-25T03:35:25;6.40;99.90
56861;DHT22;42744;51.094;3.490;2023-04-25T03:37:51;6.40;99.90
56861;DHT22;42744;51.094;3.490;2023-04-25T03:40:17;6.40;99.90
56861;DHT22;42744;51.094;3.490;2023-04-25T03:42:43;6.40;99.90
56861;DHT22;42744;51.094;3.490;2023-04-25T03:45:09;6.50;99.90
56861;DHT22;42744;51.094;3.490;2023-04-25T03:47:35;6.50;99.90
56861;DHT22;42744;51.094;3.490;2023-04-25T03:50:02;6.40;99.90
56861;DHT22;42744;51.094;3.490;2023-04-25T03:52:29;6.40;99.90
56861;DHT22;42744;51.094;3.490;2023-04-25T03:54:55;6.40;99.90
56861;DHT22;42744;51.094;3.490;2023-04-25T03:57:21;6.40;99.90
56861;DHT22;42744;51.094;3.490;2023-04-25T03:59:47;6.40;99.90
56861;DHT22;42744;51.094;3.490;2023-04-25T04:02:13;6.40;99.90
56861;DHT22;42744;51.094;3.490;2023-04-25T04:04:39;6.40;99.90
56861;DHT22;42744;51.094;3.490;2023-04-25T04:07:05;6.30;99.90
56861;DHT22;42744;51.094;3.490;2023-04-25T04:09:32;6.40;99.90
56861;DHT22;42744;51.094;3.490;2023-04-25T04:11:59;6.40;99.90
56861;DHT22;42744;51.094;3.490;2023-04-25T04:14:25;6.30;99.90
56861;DHT22;42744;51.094;3.490;2023-04-25T04:16:51;6.30;99.90
56861;DHT22;42744;51.094;3.490;2023-04-25T04:19:18;6.30;99.90
56861;DHT22;42744;51.094;3.490;2023-04-25T04:21:45;6.30;99.90
56861;DHT22;42744;51.094;3.490;2023-04-25T04:24:11;6.20;99.90
56861;DHT22;42744;51.094;3.490;2023-04-25T04:26:39;6.20;99.90
56861;DHT22;42744;51.094;3.490;2023-04-25T04:29:05;6.10;99.90
56861;DHT22;42744;51.094;3.490;2023-04-25T04:31:32;6.00;99.90
56861;DHT22;42744;51.094;3.490;2023-04-25T04:33:59;6.00;99.90
56861;DHT22;42744;51.094;3.490;2023-04-25T04:36:25;6.00;99.90
56861;DHT22;42744;51.094;3.490;2023-04-25T04:38:52;6.00;99.90
56861;DHT22;42744;51.094;3.490;2023-04-25T04:41:19;6.00;99.90
56861;DHT22;42744;51.094;3.490;2023-04-25T04:43:45;6.00;99.90
56861;DHT22;42744;51.094;3.490;2023-04-25T04:46:13;6.00;99.90
56861;DHT22;42744;51.094;3.490;2023-04-25T04:48:40;6.00;99.90
56861;DHT22;42744;51.094;3.490;2023-04-25T04:51:08;6.00;99.90
56861;DHT22;42744;51.094;3.490;2023-04-25T04:53:34;6.10;99.90
56861;DHT22;42744;51.094;3.490;2023-04-25T04:56:00;6.10;99.90
56861;DHT22;42744;51.094;3.490;2023-04-25T04:58:27;6.10;99.90
56861;DHT22;42744;51.094;3.490;2023-04-25T05:00:56;6.10;99.90
56861;DHT22;42744;51.094;3.490;2023-04-25T05:03:25;6.20;99.90
56861;DHT22;42744;51.094;3.490;2023-04-25T05:05:52;6.20;99.90
56861;DHT22;42744;51.094;3.490;2023-04-25T05:08:19;6.30;99.90
56861;DHT22;42744;51.094;3.490;2023-04-25T05:10:45;6.30;99.90
56861;DHT22;42744;51.094;3.490;2023-04-25T05:13:11;6.30;99.90
56861;DHT22;42744;51.094;3.490;2023-04-25T05:15:37;6.40;99.90
56861;DHT22;42744;51.094;3.490;2023-04-25T05:18:04;6.30;99.90
56861;DHT22;42744;51.094;3.490;2023-04-25T05:20:30;6.30;99.90
56861;DHT22;42744;51.094;3.490;2023-04-25T05:22:56;6.30;99.90
56861;DHT22;42744;51.094;3.490;2023-04-25T05:25:23;6.30;99.90
56861;DHT22;42744;51.094;3.490;2023-04-25T05:27:50;6.40;99.90
56861;DHT22;42744;51.094;3.490;2023-04-25T05:30:17;6.30;99.90
56861;DHT22;42744;51.094;3.490;2023-04-25T05:32:44;6.40;99.90
56861;DHT22;42744;51.094;3.490;2023-04-25T05:35:10;6.40;99.90
56861;DHT22;42744;51.094;3.490;2023-04-25T05:37:36;6.40;99.90
56861;DHT22;42744;51.094;3.490;2023-04-25T05:40:03;6.50;99.90
56861;DHT22;42744;51.094;3.490;2023-04-25T05:42:32;6.50;99.90
56861;DHT22;42744;51.094;3.490;2023-04-25T05:45:00;6.50;99.90
56861;DHT22;42744;51.094;3.490;2023-04-25T05:47:27;6.60;99.90
56861;DHT22;42744;51.094;3.490;2023-04-25T05:49:55;6.60;99.90
56861;DHT22;42744;51.094;3.490;2023-04-25T05:52:22;6.60;99.90
56861;DHT22;42744;51.094;3.490;2023-04-25T05:54:48;6.60;99.90
56861;DHT22;42744;51.094;3.490;2023-04-25T05:57:26;6.60;99.90
56861;DHT22;42744;51.094;3.490;2023-04-25T05:59:52;6.60;99.90
56861;DHT22;42744;51.094;3.490;2023-04-25T06:02:19;6.60;99.90
56861;DHT22;42744;51.094;3.490;2023-04-25T06:04:50;6.60;99.90
56861;DHT22;42744;51.094;3.490;2023-04-25T06:07:17;6.70;99.90
56861;DHT22;42744;51.094;3.490;2023-04-25T06:09:43;6.70;99.90
56861;DHT22;42744;51.094;3.490;2023-04-25T06:12:10;6.80;99.90
56861;DHT22;42744;51.094;3.490;2023-04-25T06:14:36;6.80;99.90
56861;DHT22;42744;51.094;3.490;2023-04-25T06:17:03;6.90;99.90
56861;DHT22;42744;51.094;3.490;2023-04-25T06:19:35;7.00;99.90
56861;DHT22;42744;51.094;3.490;2023-04-25T06:22:02;7.00;99.90
56861;DHT22;42744;51.094;3.490;2023-04-25T06:24:31;7.10;99.90
56861;DHT22;42744;51.094;3.490;2023-04-25T06:26:57;7.10;99.90
56861;DHT22;42744;51.094;3.490;2023-04-25T06:29:24;7.20;99.90
56861;DHT22;42744;51.094;3.490;2023-04-25T06:31:49;7.20;99.90
56861;DHT22;42744;51.094;3.490;2023-04-25T06:34:17;7.20;99.90
56861;DHT22;42744;51.094;3.490;2023-04-25T06:36:43;7.30;99.90
56861;DHT22;42744;51.094;3.490;2023-04-25T06:39:10;7.30;99.90
56861;DHT22;42744;51.094;3.490;2023-04-25T06:41:37;7.40;99.90
56861;DHT22;42744;51.094;3.490;2023-04-25T06:44:05;7.40;99.90
56861;DHT22;42744;51.094;3.490;2023-04-25T06:46:31;7.50;99.90
56861;DHT22;42744;51.094;3.490;2023-04-25T06:48:58;7.60;99.90
56861;DHT22;42744;51.094;3.490;2023-04-25T06:51:24;7.70;99.90
56861;DHT22;42744;51.094;3.490;2023-04-25T06:53:50;7.80;99.90
56861;DHT22;42744;51.094;3.490;2023-04-25T06:56:17;7.90;99.90
56861;DHT22;42744;51.094;3.490;2023-04-25T06:58:44;7.90;99.90
56861;DHT22;42744;51.094;3.490;2023-04-25T07:01:11;8.00;99.90
56861;DHT22;42744;51.094;3.490;2023-04-25T07:03:37;7.90;99.90
56861;DHT22;42744;51.094;3.490;2023-04-25T07:06:05;8.00;99.90
56861;DHT22;42744;51.094;3.490;2023-04-25T07:08:32;8.00;99.90
56861;DHT22;42744;51.094;3.490;2023-04-25T07:10:58;8.00;99.90
56861;DHT22;42744;51.094;3.490;2023-04-25T07:13:24;8.10;99.90
56861;DHT22;42744;51.094;3.490;2023-04-25T07:15:50;8.10;99.90
56861;DHT22;42744;51.094;3.490;2023-04-25T07:18:16;8.30;99.90
56861;DHT22;42744;51.094;3.490;2023-04-25T07:20:42;8.40;99.90
56861;DHT22;42744;51.094;3.490;2023-04-25T07:23:08;8.30;99.90
56861;DHT22;42744;51.094;3.490;2023-04-25T07:25:35;8.30;99.90
56861;DHT22;42744;51.094;3.490;2023-04-25T07:28:01;8.40;99.90
56861;DHT22;42744;51.094;3.490;2023-04-25T07:30:27;8.60;99.90
56861;DHT22;42744;51.094;3.490;2023-04-25T07:32:53;8.80;99.90
56861;DHT22;42744;51.094;3.490;2023-04-25T07:35:19;8.90;99.90
56861;DHT22;42744;51.094;3.490;2023-04-25T07:37:47;8.70;99.90
56861;DHT22;42744;51.094;3.490;2023-04-25T07:40:13;8.50;99.90
56861;DHT22;42744;51.094;3.490;2023-04-25T07:42:42;8.30;99.90
56861;DHT22;42744;51.094;3.490;2023-04-25T07:45:09;8.20;99.90
56861;DHT22;42744;51.094;3.490;2023-04-25T07:47:37;8.30;99.90
56861;DHT22;42744;51.094;3.490;2023-04-25T07:50:04;8.30;99.90
56861;DHT22;42744;51.094;3.490;2023-04-25T07:52:30;8.40;99.90
56861;DHT22;42744;51.094;3.490;2023-04-25T07:54:59;8.40;99.90
56861;DHT22;42744;51.094;3.490;2023-04-25T07:57:27;8.50;99.90
56861;DHT22;42744;51.094;3.490;2023-04-25T07:59:54;8.60;99.90
56861;DHT22;42744;51.094;3.490;2023-04-25T08:02:21;8.70;99.90
56861;DHT22;42744;51.094;3.490;2023-04-25T08:04:47;8.80;99.90
56861;DHT22;42744;51.094;3.490;2023-04-25T08:07:15;8.90;99.90
56861;DHT22;42744;51.094;3.490;2023-04-25T08:09:42;8.80;99.90
56861;DHT22;42744;51.094;3.490;2023-04-25T08:12:09;9.00;99.90
56861;DHT22;42744;51.094;3.490;2023-04-25T08:14:35;9.20;99.90
56861;DHT22;42744;51.094;3.490;2023-04-25T08:17:05;9.20;99.90
56861;DHT22;42744;51.094;3.490;2023-04-25T08:19:32;9.20;99.90
56861;DHT22;42744;51.094;3.490;2023-04-25T08:21:58;9.20;99.90
56861;DHT22;42744;51.094;3.490;2023-04-25T08:24:24;9.10;99.90
56861;DHT22;42744;51.094;3.490;2023-04-25T08:26:51;9.00;99.90
56861;DHT22;42744;51.094;3.490;2023-04-25T08:29:21;8.80;99.90
56861;DHT22;42744;51.094;3.490;2023-04-25T08:31:49;8.80;99.90
56861;DHT22;42744;51.094;3.490;2023-04-25T08:34:15;8.80;99.90
56861;DHT22;42744;51.094;3.490;2023-04-25T08:36:41;8.80;99.90
56861;DHT22;42744;51.094;3.490;2023-04-25T08:39:12;9.10;99.90
56861;DHT22;42744;51.094;3.490;2023-04-25T08:41:41;9.50;99.90
56861;DHT22;42744;51.094;3.490;2023-04-25T08:44:10;9.70;99.90
56861;DHT22;42744;51.094;3.490;2023-04-25T08:46:40;9.70;99.90
56861;DHT22;42744;51.094;3.490;2023-04-25T08:49:08;9.50;99.90
56861;DHT22;42744;51.094;3.490;2023-04-25T08:51:44;9.30;99.90
56861;DHT22;42744;51.094;3.490;2023-04-25T08:54:14;9.00;99.90
56861;DHT22;42744;51.094;3.490;2023-04-25T08:56:43;8.90;99.90
56861;DHT22;42744;51.094;3.490;2023-04-25T08:59:11;8.80;99.90
56861;DHT22;42744;51.094;3.490;2023-04-25T09:01:38;8.80;99.90
56861;DHT22;42744;51.094;3.490;2023-04-25T09:04:04;8.70;99.90
56861;DHT22;42744;51.094;3.490;2023-04-25T09:06:31;8.70;99.90
56861;DHT22;42744;51.094;3.490;2023-04-25T09:09:06;8.70;99.90
56861;DHT22;42744;51.094;3.490;2023-04-25T09:11:34;8.80;99.90
56861;DHT22;42744;51.094;3.490;2023-04-25T09:14:18;8.90;99.90
56861;DHT22;42744;51.094;3.490;2023-04-25T09:19:25;9.40;99.90
56861;DHT22;42744;51.094;3.490;2023-04-25T09:21:58;9.70;99.90
56861;DHT22;42744;51.094;3.490;2023-04-25T09:26:57;9.90;99.90
56861;DHT22;42744;51.094;3.490;2023-04-25T09:29:30;9.70;99.90
56861;DHT22;42744;51.094;3.490;2023-04-25T09:32:11;9.60;99.90
56861;DHT22;42744;51.094;3.490;2023-04-25T09:34:40;9.60;99.90
56861;DHT22;42744;51.094;3.490;2023-04-25T09:37:09;9.80;99.90
56861;DHT22;42744;51.094;3.490;2023-04-25T09:39:40;9.90;99.90
56861;DHT22;42744;51.094;3.490;2023-04-25T09:42:09;9.70;99.90
56861;DHT22;42744;51.094;3.490;2023-04-25T09:44:35;9.60;99.90
56861;DHT22;42744;51.094;3.490;2023-04-25T09:47:02;9.70;99.90
56861;DHT22;42744;51.094;3.490;2023-04-25T09:49:29;9.90;99.90
56861;DHT22;42744;51.094;3.490;2023-04-25T09:51:59;9.90;99.90
56861;DHT22;42744;51.094;3.490;2023-04-25T09:54:26;9.90;99.90
56861;DHT22;42744;51.094;3.490;2023-04-25T09:56:53;9.80;99.90
56861;DHT22;42744;51.094;3.490;2023-04-25T09:59:21;9.70;99.90
56861;DHT22;42744;51.094;3.490;2023-04-25T10:01:48;9.50;99.90
56861;DHT22;42744;51.094;3.490;2023-04-25T10:04:25;9.20;99.90
56861;DHT22;42744;51.094;3.490;2023-04-25T10:06:56;9.00;99.90
56861;DHT22;42744;51.094;3.490;2023-04-25T10:09:25;8.90;99.90
56861;DHT22;42744;51.094;3.490;2023-04-25T10:11:52;8.90;99.90
56861;DHT22;42744;51.094;3.490;2023-04-25T10:14:19;8.80;99.90
56861;DHT22;42744;51.094;3.490;2023-04-25T10:16:46;8.80;99.90
56861;DHT22;42744;51.094;3.490;2023-04-25T10:19:12;8.90;99.90
56861;DHT22;42744;51.094;3.490;2023-04-25T10:21:50;9.00;99.90
56861;DHT22;42744;51.094;3.490;2023-04-25T10:24:17;9.20;99.90
56861;DHT22;42744;51.094;3.490;2023-04-25T10:26:43;9.40;99.90
56861;DHT22;42744;51.094;3.490;2023-04-25T10:29:09;9.60;99.90
56861;DHT22;42744;51.094;3.490;2023-04-25T10:31:47;9.70;99.90
56861;DHT22;42744;51.094;3.490;2023-04-25T10:34:13;9.90;99.90
56861;DHT22;42744;51.094;3.490;2023-04-25T10:36:39;9.90;99.90
56861;DHT22;42744;51.094;3.490;2023-04-25T10:39:06;10.00;99.90
56861;DHT22;42744;51.094;3.490;2023-04-25T10:41:53;10.20;99.90
56861;DHT22;42744;51.094;3.490;2023-04-25T10:44:19;10.50;99.90
56861;DHT22;42744;51.094;3.490;2023-04-25T10:46:45;10.60;99.90
56861;DHT22;42744;51.094;3.490;2023-04-25T10:49:31;10.90;99.90
56861;DHT22;42744;51.094;3.490;2023-04-25T10:54:42;12.40;99.90
56861;DHT22;42744;51.094;3.490;2023-04-25T10:57:47;12.80;99.90
56861;DHT22;42744;51.094;3.490;2023-04-25T11:00:19;13.10;99.90
56861;DHT22;42744;51.094;3.490;2023-04-25T11:02:47;13.10;99.90
56861;DHT22;42744;51.094;3.490;2023-04-25T11:05:20;13.10;99.90
56861;DHT22;42744;51.094;3.490;2023-04-25T11:07:55;13.30;99.90
56861;DHT22;42744;51.094;3.490;2023-04-25T11:10:41;13.20;99.90
56861;DHT22;42744;51.094;3.490;2023-04-25T11:13:07;12.80;99.90
56861;DHT22;42744;51.094;3.490;2023-04-25T11:15:33;12.20;99.90
56861;DHT22;42744;51.094;3.490;2023-04-25T11:17:59;11.90;99.90
56861;DHT22;42744;51.094;3.490;2023-04-25T11:20:25;11.80;99.90
56861;DHT22;42744;51.094;3.490;2023-04-25T11:22:52;11.70;99.90
56861;DHT22;42744;51.094;3.490;2023-04-25T11:25:17;11.90;99.90
56861;DHT22;42744;51.094;3.490;2023-04-25T11:27:57;11.80;99.90
56861;DHT22;42744;51.094;3.490;2023-04-25T11:30:25;12.10;99.90
56861;DHT22;42744;51.094;3.490;2023-04-25T11:32:52;12.70;99.90
56861;DHT22;42744;51.094;3.490;2023-04-25T11:35:19;13.30;99.90
56861;DHT22;42744;51.094;3.490;2023-04-25T11:37:46;13.40;98.20
56861;DHT22;42744;51.094;3.490;2023-04-25T11:40:13;13.40;96.40
56861;DHT22;42744;51.094;3.490;2023-04-25T11:42:45;13.40;99.90
56861;DHT22;42744;51.094;3.490;2023-04-25T11:45:11;13.90;99.90
56861;DHT22;42744;51.094;3.490;2023-04-25T11:47:38;14.40;99.90
56861;DHT22;42744;51.094;3.490;2023-04-25T11:50:06;14.00;97.30
56861;DHT22;42744;51.094;3.490;2023-04-25T11:52:51;13.40;94.20
56861;DHT22;42744;51.094;3.490;2023-04-25T11:55:19;12.60;98.40
56861;DHT22;42744;51.094;3.490;2023-04-25T11:57:48;12.00;99.00
56861;DHT22;42744;51.094;3.490;2023-04-25T12:00:16;11.60;98.00
56861;DHT22;42744;51.094;3.490;2023-04-25T12:02:44;11.50;99.90
56861;DHT22;42744;51.094;3.490;2023-04-25T12:05:12;11.70;99.90
56861;DHT22;42744;51.094;3.490;2023-04-25T12:07:38;11.60;99.90
56861;DHT22;42744;51.094;3.490;2023-04-25T12:10:08;11.50;99.90
56861;DHT22;42744;51.094;3.490;2023-04-25T12:12:36;11.30;99.90
56861;DHT22;42744;51.094;3.490;2023-04-25T12:15:11;11.30;99.90
56861;DHT22;42744;51.094;3.490;2023-04-25T12:17:38;11.30;99.90
56861;DHT22;42744;51.094;3.490;2023-04-25T12:20:13;11.30;99.90
56861;DHT22;42744;51.094;3.490;2023-04-25T12:22:42;11.40;99.90
56861;DHT22;42744;51.094;3.490;2023-04-25T12:28:20;11.80;99.90
56861;DHT22;42744;51.094;3.490;2023-04-25T12:30:56;12.80;99.90
56861;DHT22;42744;51.094;3.490;2023-04-25T12:33:41;13.70;97.70
56861;DHT22;42744;51.094;3.490;2023-04-25T12:36:09;14.30;96.40
56861;DHT22;42744;51.094;3.490;2023-04-25T12:38:39;14.50;94.50
56861;DHT22;42744;51.094;3.490;2023-04-25T12:41:06;14.40;94.60
56861;DHT22;42744;51.094;3.490;2023-04-25T12:43:32;13.60;95.30
56861;DHT22;42744;51.094;3.490;2023-04-25T12:45:58;12.70;93.70
56861;DHT22;42744;51.094;3.490;2023-04-25T12:48:24;12.10;96.50
56861;DHT22;42744;51.094;3.490;2023-04-25T12:50:51;11.90;96.30
56861;DHT22;42744;51.094;3.490;2023-04-25T12:53:19;12.00;99.10
56861;DHT22;42744;51.094;3.490;2023-04-25T12:55:45;12.00;95.80
56861;DHT22;42744;51.094;3.490;2023-04-25T12:58:16;11.90;98.40
56861;DHT22;42744;51.094;3.490;2023-04-25T13:00:43;11.70;98.80
56861;DHT22;42744;51.094;3.490;2023-04-25T13:03:10;11.50;99.90
56861;DHT22;42744;51.094;3.490;2023-04-25T13:05:37;11.90;99.90
56861;DHT22;42744;51.094;3.490;2023-04-25T13:08:03;11.90;99.90
56861;DHT22;42744;51.094;3.490;2023-04-25T13:10:30;11.80;99.90
56861;DHT22;42744;51.094;3.490;2023-04-25T13:12:55;12.10;99.90
56861;DHT22;42744;51.094;3.490;2023-04-25T13:15:22;12.50;99.90
56861;DHT22;42744;51.094;3.490;2023-04-25T13:17:48;12.90;99.90
56861;DHT22;42744;51.094;3.490;2023-04-25T13:20:15;13.10;99.20
56861;DHT22;42744;51.094;3.490;2023-04-25T13:22:42;13.10;97.50
56861;DHT22;42744;51.094;3.490;2023-04-25T13:25:08;13.10;97.90
56861;DHT22;42744;51.094;3.490;2023-04-25T13:27:36;13.60;95.50
56861;DHT22;42744;51.094;3.490;2023-04-25T13:30:06;13.90;94.50
56861;DHT22;42744;51.094;3.490;2023-04-25T13:32:35;14.30;97.30
56861;DHT22;42744;51.094;3.490;2023-04-25T13:35:07;14.20;92.50
56861;DHT22;42744;51.094;3.490;2023-04-25T13:37:34;14.00;92.80
56861;DHT22;42744;51.094;3.490;2023-04-25T13:40:04;13.80;94.50
56861;DHT22;42744;51.094;3.490;2023-04-25T13:42:33;13.30;93.50
56861;DHT22;42744;51.094;3.490;2023-04-25T13:44:59;12.50;92.90
56861;DHT22;42744;51.094;3.490;2023-04-25T13:47:26;12.10;93.60
56861;DHT22;42744;51.094;3.490;2023-04-25T13:49:53;11.90;94.80
56861;DHT22;42744;51.094;3.490;2023-04-25T13:52:19;11.70;96.10
56861;DHT22;42744;51.094;3.490;2023-04-25T13:54:44;12.10;98.50
56861;DHT22;42744;51.094;3.490;2023-04-25T13:57:11;12.30;99.90
56861;DHT22;42744;51.094;3.490;2023-04-25T13:59:37;12.00;98.30
56861;DHT22;42744;51.094;3.490;2023-04-25T14:02:03;11.80;97.20
56861;DHT22;42744;51.094;3.490;2023-04-25T14:04:30;11.60;99.00
56861;DHT22;42744;51.094;3.490;2023-04-25T14:06:56;11.50;99.50
56861;DHT22;42744;51.094;3.490;2023-04-25T14:09:22;11.20;98.40
56861;DHT22;42744;51.094;3.490;2023-04-25T14:11:51;10.90;99.00
56861;DHT22;42744;51.094;3.490;2023-04-25T14:14:21;10.80;99.90
56861;DHT22;42744;51.094;3.490;2023-04-25T14:16:48;10.80;99.90
56861;DHT22;42744;51.094;3.490;2023-04-25T14:19:15;10.70;99.90
56861;DHT22;42744;51.094;3.490;2023-04-25T14:21:41;10.70;99.90
56861;DHT22;42744;51.094;3.490;2023-04-25T14:24:08;11.10;99.90
56861;DHT22;42744;51.094;3.490;2023-04-25T14:26:35;11.60;99.90
56861;DHT22;42744;51.094;3.490;2023-04-25T14:29:01;12.20;99.90
56861;DHT22;42744;51.094;3.490;2023-04-25T14:31:27;12.80;99.90
56861;DHT22;42744;51.094;3.490;2023-04-25T14:33:53;13.00;98.20
56861;DHT22;42744;51.094;3.490;2023-04-25T14:36:19;12.40;97.80
56861;DHT22;42744;51.094;3.490;2023-04-25T14:38:45;11.80;99.70
56861;DHT22;42744;51.094;3.490;2023-04-25T14:41:12;11.40;99.90
56861;DHT22;42744;51.094;3.490;2023-04-25T14:43:38;11.40;99.90
56861;DHT22;42744;51.094;3.490;2023-04-25T14:46:06;11.20;99.90
56861;DHT22;42744;51.094;3.490;2023-04-25T14:48:33;11.20;99.90
56861;DHT22;42744;51.094;3.490;2023-04-25T14:50:59;11.50;99.90
56861;DHT22;42744;51.094;3.490;2023-04-25T14:53:26;11.60;99.30
56861;DHT22;42744;51.094;3.490;2023-04-25T14:55:53;11.50;99.40
56861;DHT22;42744;51.094;3.490;2023-04-25T14:58:19;11.40;98.70
56861;DHT22;42744;51.094;3.490;2023-04-25T15:00:46;11.40;99.50
56861;DHT22;42744;51.094;3.490;2023-04-25T15:03:13;11.70;99.70
56861;DHT22;42744;51.094;3.490;2023-04-25T15:05:39;11.70;97.90
56861;DHT22;42744;51.094;3.490;2023-04-25T15:08:06;11.80;98.60
56861;DHT22;42744;51.094;3.490;2023-04-25T15:10:32;12.00;97.30
56861;DHT22;42744;51.094;3.490;2023-04-25T15:12:58;11.80;97.00
56861;DHT22;42744;51.094;3.490;2023-04-25T15:15:24;11.50;98.30
56861;DHT22;42744;51.094;3.490;2023-04-25T15:17:50;11.30;98.50
56861;DHT22;42744;51.094;3.490;2023-04-25T15:20:16;11.30;99.30
56861;DHT22;42744;51.094;3.490;2023-04-25T15:22:43;11.50;99.20
56861;DHT22;42744;51.094;3.490;2023-04-25T15:25:11;11.60;97.40
56861;DHT22;42744;51.094;3.490;2023-04-25T15:27:38;11.60;96.40
56861;DHT22;42744;51.094;3.490;2023-04-25T15:30:07;12.00;96.90
56861;DHT22;42744;51.094;3.490;2023-04-25T15:32:34;12.50;95.60
56861;DHT22;42744;51.094;3.490;2023-04-25T15:35:03;12.90;94.60
56861;DHT22;42744;51.094;3.490;2023-04-25T15:37:29;13.00;94.70
56861;DHT22;42744;51.094;3.490;2023-04-25T15:40:02;12.70;95.20
56861;DHT22;42744;51.094;3.490;2023-04-25T15:42:52;12.40;95.60
56861;DHT22;42744;51.094;3.490;2023-04-25T15:45:24;12.20;94.10
56861;DHT22;42744;51.094;3.490;2023-04-25T15:47:55;11.90;95.60
56861;DHT22;42744;51.094;3.490;2023-04-25T15:50:22;11.90;97.00
56861;DHT22;42744;51.094;3.490;2023-04-25T15:52:49;11.90;96.90
56861;DHT22;42744;51.094;3.490;2023-04-25T15:55:15;12.00;96.90